Time;durP1;ratioP1;P1;durP2;ratioP2;P2;SDS_P1;SDS_P2;PMS_P1;PMS_P2;Temp;Humidity;BMP_temperature;BMP_pressure;BME280_temperature;BME280_humidity;BME280_pressure;Samples;Min_cycle;Max_cycle;Signal;HPM_P1;HPM_P2
2021/06/04 00:01:10;;;;;;;1.75;1.60;;;23.90;35.40;;;;;;5012759;28;20700;-45
2021/06/04 00:03:36;;;;;;;1.88;1.77;;;23.90;35.40;;;;;;5014521;28;20231;-47
2021/06/04 00:06:02;;;;;;;2.00;1.90;;;23.90;35.40;;;;;;5026096;28;20285;-49
2021/06/04 00:08:28;;;;;;;1.60;1.50;;;23.90;35.40;;;;;;5024386;28;20199;-49
2021/06/04 00:10:54;;;;;;;2.25;2.00;;;23.90;35.30;;;;;;5022904;28;20209;-47
2021/06/04 00:13:20;;;;;;;1.90;1.80;;;23.90;35.40;;;;;;5016920;28;20234;-48
2021/06/04 00:15:46;;;;;;;2.03;1.83;;;23.90;35.40;;;;;;5019868;28;20203;-50
2021/06/04 00:18:12;;;;;;;1.88;1.77;;;23.90;35.40;;;;;;5014401;28;20215;-47
2021/06/04 00:20:38;;;;;;;1.90;1.80;;;23.90;35.40;;;;;;5021320;28;20203;-48
2021/06/04 00:23:04;;;;;;;2.08;1.67;;;23.90;35.30;;;;;;5013927;28;20333;-48
2021/06/04 00:25:30;;;;;;;1.90;1.80;;;23.90;35.30;;;;;;5027531;28;20238;-47
2021/06/04 00:27:56;;;;;;;1.75;1.65;;;23.90;35.40;;;;;;5021660;28;20682;-50
2021/06/04 00:30:22;;;;;;;1.85;1.75;;;23.90;35.40;;;;;;5011641;28;20234;-49
2021/06/04 00:32:48;;;;;;;2.17;1.85;;;23.90;35.40;;;;;;5023127;28;20211;-51
2021/06/04 00:35:14;;;;;;;1.95;1.75;;;23.90;35.30;;;;;;5013639;28;20227;-49
2021/06/04 00:37:40;;;;;;;2.05;1.70;;;23.90;36.00;;;;;;5031567;28;20206;-46
2021/06/04 00:40:06;;;;;;;1.80;1.70;;;23.90;35.40;;;;;;5020659;28;20203;-47
2021/06/04 00:42:34;;;;;;;2.03;1.85;;;23.90;35.40;;;;;;5013962;28;20207;-47
2021/06/04 00:45:00;;;;;;;1.98;1.80;;;23.90;35.40;;;;;;5013017;28;20238;-47
2021/06/04 00:47:26;;;;;;;2.78;1.63;;;23.90;35.40;;;;;;5027481;28;20199;-47
2021/06/04 00:49:52;;;;;;;1.70;1.60;;;23.90;35.40;;;;;;5033440;28;20214;-46
2021/06/04 00:52:18;;;;;;;1.65;1.55;;;23.90;35.40;;;;;;5013946;28;20565;-48
2021/06/04 00:54:44;;;;;;;1.50;1.40;;;23.90;35.40;;;;;;5012572;28;20235;-47
2021/06/04 00:57:10;;;;;;;1.63;1.52;;;23.90;35.30;;;;;;5023038;28;20202;-48
2021/06/04 00:59:37;;;;;;;2.00;1.90;;;23.90;35.30;;;;;;5021994;28;20214;-47
2021/06/04 01:02:03;;;;;;;1.80;1.70;;;23.90;35.40;;;;;;5013621;28;20203;-48
2021/06/04 01:04:29;;;;;;;1.58;1.48;;;23.90;35.40;;;;;;5009617;28;20223;-48
2021/06/04 01:06:55;;;;;;;1.60;1.50;;;23.90;35.30;;;;;;5012962;28;20238;-48
2021/06/04 01:09:21;;;;;;;1.73;1.63;;;23.90;35.30;;;;;;5021705;28;20199;-50
2021/06/04 01:11:47;;;;;;;1.48;1.38;;;23.90;35.50;;;;;;5014044;28;20609;-46
2021/06/04 01:14:13;;;;;;;2.20;2.00;;;23.90;35.50;;;;;;5014894;28;20231;-48
2021/06/04 01:16:40;;;;;;;1.90;1.80;;;23.90;35.50;;;;;;5018323;28;20215;-50
2021/06/04 01:19:08;;;;;;;1.80;1.70;;;23.80;35.40;;;;;;5012731;28;20573;-48
2021/06/04 01:21:34;;;;;;;1.70;1.60;;;23.80;35.40;;;;;;5012450;28;20851;-49
2021/06/04 01:24:00;;;;;;;1.70;1.60;;;23.80;35.40;;;;;;5014870;28;20230;-50
2021/06/04 01:26:26;;;;;;;2.13;1.98;;;23.90;35.50;;;;;;5012615;28;20235;-51
2021/06/04 01:28:52;;;;;;;1.67;1.58;;;23.90;35.50;;;;;;5022906;28;20222;-52
2021/06/04 01:31:18;;;;;;;1.85;1.75;;;23.80;35.40;;;;;;5012599;28;20206;-53
2021/06/04 01:33:44;;;;;;;1.75;1.65;;;23.80;35.40;;;;;;5012902;28;20562;-48
2021/06/04 01:36:10;;;;;;;1.70;1.60;;;23.90;35.50;;;;;;5002384;28;20203;-46
2021/06/04 01:38:36;;;;;;;1.60;1.50;;;23.90;35.50;;;;;;5026223;28;20210;-50
2021/06/04 01:41:02;;;;;;;1.65;1.55;;;23.90;35.50;;;;;;5032231;28;20210;-52
2021/06/04 01:43:28;;;;;;;1.75;1.65;;;23.90;35.50;;;;;;5016390;28;20307;-50
2021/06/04 01:45:54;;;;;;;1.73;1.63;;;23.90;35.50;;;;;;5012439;28;20226;-51
2021/06/04 01:48:20;;;;;;;2.08;1.80;;;23.80;35.40;;;;;;5011963;28;20215;-48
2021/06/04 01:50:46;;;;;;;1.83;1.73;;;23.80;35.40;;;;;;4992646;28;20214;-46
2021/06/04 01:53:12;;;;;;;1.80;1.70;;;23.80;35.40;;;;;;5012554;28;20222;-48
2021/06/04 01:55:38;;;;;;;1.67;1.58;;;23.80;35.40;;;;;;5012070;28;20203;-47
2021/06/04 01:58:04;;;;;;;1.80;1.70;;;23.80;35.40;;;;;;5019915;28;20210;-46
2021/06/04 02:00:30;;;;;;;1.60;1.50;;;23.80;35.40;;;;;;5011543;28;20221;-48
2021/06/04 02:02:56;;;;;;;1.60;1.50;;;23.80;35.40;;;;;;5010441;28;20541;-48
2021/06/04 02:05:22;;;;;;;2.40;1.65;;;23.80;35.60;;;;;;5011396;28;20223;-46
2021/06/04 02:07:48;;;;;;;1.67;1.58;;;23.90;35.60;;;;;;5015516;28;20198;-49
2021/06/04 02:10:16;;;;;;;1.80;1.70;;;23.80;35.60;;;;;;5014130;28;20848;-50
2021/06/04 02:12:42;;;;;;;2.00;1.70;;;23.90;35.70;;;;;;5000371;28;20230;-44
2021/06/04 02:15:08;;;;;;;1.80;1.70;;;23.80;35.60;;;;;;5009849;28;20302;-46
2021/06/04 02:17:34;;;;;;;1.60;1.50;;;23.80;35.60;;;;;;5016367;28;20281;-45
2021/06/04 02:20:00;;;;;;;1.70;1.60;;;23.80;35.70;;;;;;5019481;28;20207;-45
2021/06/04 02:22:26;;;;;;;1.45;1.35;;;23.80;35.70;;;;;;5011231;28;20199;-46
2021/06/04 02:24:52;;;;;;;1.70;1.60;;;23.80;35.70;;;;;;5011893;28;20285;-48
2021/06/04 02:27:18;;;;;;;1.70;1.60;;;23.80;35.70;;;;;;5020044;28;20207;-44
2021/06/04 02:29:44;;;;;;;2.63;1.67;;;23.80;35.70;;;;;;5008450;28;20210;-50
2021/06/04 02:32:10;;;;;;;1.83;1.73;;;23.80;35.70;;;;;;5011761;28;20207;-45
2021/06/04 02:34:36;;;;;;;1.95;1.85;;;23.80;35.60;;;;;;5016424;28;20238;-48
2021/06/04 02:37:02;;;;;;;2.50;1.80;;;23.80;35.60;;;;;;5011575;28;20217;-47
2021/06/04 02:39:28;;;;;;;1.85;1.75;;;23.80;35.60;;;;;;5020852;28;20659;-49
2021/06/04 02:41:54;;;;;;;1.65;1.55;;;23.80;35.60;;;;;;5030553;28;20206;-46
2021/06/04 02:44:20;;;;;;;1.60;1.50;;;23.80;35.70;;;;;;5011632;28;20226;-49
2021/06/04 02:46:46;;;;;;;1.55;1.45;;;23.80;35.60;;;;;;5011251;28;20238;-47
2021/06/04 02:49:12;;;;;;;2.03;1.90;;;23.80;35.60;;;;;;5016651;28;20236;-46
2021/06/04 02:51:38;;;;;;;1.70;1.60;;;23.80;35.60;;;;;;5016546;28;20207;-48
2021/06/04 02:54:04;;;;;;;2.08;1.55;;;23.90;35.70;;;;;;5016765;28;20227;-47
2021/06/04 02:56:30;;;;;;;1.88;1.77;;;23.80;35.60;;;;;;5010469;28;20238;-50
2021/06/04 02:58:56;;;;;;;1.60;1.50;;;23.80;35.70;;;;;;5019251;28;20210;-47
2021/06/04 03:01:22;;;;;;;1.88;1.77;;;23.80;35.60;;;;;;5011058;28;20198;-46
2021/06/04 03:03:51;;;;;;;1.67;1.58;;;23.80;35.60;;;;;;5015863;28;20226;-47
2021/06/04 03:06:17;;;;;;;1.73;1.63;;;23.80;35.70;;;;;;5007912;28;20222;-46
2021/06/04 03:08:45;;;;;;;1.73;1.63;;;23.80;35.70;;;;;;5009212;28;20231;-45
2021/06/04 03:11:11;;;;;;;1.42;1.30;;;23.80;35.70;;;;;;5020658;28;20217;-50
2021/06/04 03:13:37;;;;;;;1.42;1.33;;;23.80;35.70;;;;;;5023401;28;20219;-45
2021/06/04 03:16:03;;;;;;;1.65;1.55;;;23.80;35.70;;;;;;5010800;28;20537;-47
2021/06/04 03:18:29;;;;;;;1.60;1.50;;;23.80;35.70;;;;;;5009896;28;20214;-45
2021/06/04 03:20:55;;;;;;;1.70;1.60;;;23.80;35.70;;;;;;5009657;28;20203;-46
2021/06/04 03:23:21;;;;;;;1.90;1.77;;;23.80;35.70;;;;;;5016308;28;20226;-48
2021/06/04 03:25:47;;;;;;;1.88;1.77;;;23.80;35.70;;;;;;5020281;28;20218;-48
2021/06/04 03:28:13;;;;;;;1.75;1.65;;;23.80;35.70;;;;;;5005910;28;20214;-45
2021/06/04 03:30:39;;;;;;;1.50;1.40;;;23.80;35.70;;;;;;5015888;28;20210;-45
2021/06/04 03:33:05;;;;;;;1.80;1.70;;;23.80;35.70;;;;;;5012488;28;20304;-45
2021/06/04 03:35:31;;;;;;;1.77;1.67;;;23.80;35.70;;;;;;5023920;28;20204;-45
2021/06/04 03:37:57;;;;;;;1.83;1.50;;;23.80;35.70;;;;;;5000411;28;20203;-46
2021/06/04 03:40:22;;;;;;;1.65;1.55;;;23.80;35.70;;;;;;5019031;28;20256;-48
2021/06/04 03:42:48;;;;;;;2.15;1.83;;;23.80;35.70;;;;;;5012501;28;20690;-50
2021/06/04 03:45:14;;;;;;;1.70;1.60;;;23.80;35.70;;;;;;5028423;28;20226;-47
2021/06/04 03:47:40;;;;;;;1.70;1.60;;;23.80;35.80;;;;;;5012745;28;20692;-45
2021/06/04 03:50:06;;;;;;;1.73;1.55;;;23.80;35.70;;;;;;5025813;28;20202;-47
2021/06/04 03:52:32;;;;;;;1.70;1.60;;;23.80;35.70;;;;;;5013457;28;20558;-45
2021/06/04 03:54:59;;;;;;;2.20;1.58;;;23.80;35.70;;;;;;5016390;28;20218;-45
2021/06/04 03:57:25;;;;;;;2.85;1.70;;;23.80;35.70;;;;;;5009822;28;20550;-46
2021/06/04 03:59:50;;;;;;;1.65;1.55;;;23.80;35.70;;;;;;5002735;28;20249;-50
2021/06/04 04:02:16;;;;;;;1.85;1.75;;;23.80;35.70;;;;;;5016919;28;20203;-48
2021/06/04 04:04:42;;;;;;;1.83;1.73;;;23.80;35.70;;;;;;5009111;28;20223;-52
2021/06/04 04:07:08;;;;;;;1.50;1.40;;;23.80;35.70;;;;;;4993489;28;20250;-47
2021/06/04 04:09:34;;;;;;;1.60;1.50;;;23.80;35.70;;;;;;5015899;28;20207;-47
2021/06/04 04:12:00;;;;;;;3.35;1.60;;;23.80;35.80;;;;;;5009422;28;20206;-47
2021/06/04 04:14:26;;;;;;;1.92;1.73;;;23.80;35.80;;;;;;5011195;28;20215;-50
2021/06/04 04:16:52;;;;;;;1.35;1.25;;;23.80;35.80;;;;;;5007742;28;20234;-48
2021/06/04 04:19:19;;;;;;;1.50;1.40;;;23.80;35.70;;;;;;5016112;28;20206;-47
2021/06/04 04:21:45;;;;;;;1.60;1.50;;;23.80;35.70;;;;;;5017719;28;20245;-49
2021/06/04 04:24:11;;;;;;;1.83;1.42;;;23.80;35.80;;;;;;5013572;28;20644;-48
2021/06/04 04:26:37;;;;;;;1.88;1.77;;;23.80;35.70;;;;;;5012709;28;20269;-47
2021/06/04 04:29:03;;;;;;;1.35;1.35;;;23.80;35.80;;;;;;5016112;28;20574;-46
2021/06/04 04:31:29;;;;;;;1.85;1.67;;;23.80;35.80;;;;;;5013305;28;20210;-47
2021/06/04 04:33:55;;;;;;;1.70;1.60;;;23.80;35.80;;;;;;5012090;28;20620;-47
2021/06/04 04:36:21;;;;;;;2.10;1.90;;;23.80;35.70;;;;;;5020199;28;20260;-48
2021/06/04 04:38:47;;;;;;;1.90;1.80;;;23.80;35.70;;;;;;5029101;28;20264;-45
2021/06/04 04:41:13;;;;;;;1.77;1.65;;;23.80;35.80;;;;;;5012910;28;20199;-47
2021/06/04 04:43:39;;;;;;;2.75;1.70;;;23.80;35.80;;;;;;5025040;28;20230;-49
2021/06/04 04:46:05;;;;;;;1.60;1.50;;;23.80;35.70;;;;;;5018678;28;20707;-45
2021/06/04 04:48:31;;;;;;;1.80;1.60;;;23.80;35.80;;;;;;5012826;28;20265;-46
2021/06/04 04:50:57;;;;;;;1.70;1.60;;;23.80;35.80;;;;;;5006793;28;20675;-45
2021/06/04 04:53:23;;;;;;;1.60;1.50;;;23.80;35.80;;;;;;5013551;28;20250;-47
2021/06/04 04:55:49;;;;;;;1.60;1.50;;;23.80;35.80;;;;;;5011384;28;20207;-47
2021/06/04 04:58:15;;;;;;;1.73;1.63;;;23.80;35.70;;;;;;5011939;28;20207;-47
2021/06/04 05:00:41;;;;;;;1.88;1.50;;;23.80;35.80;;;;;;5012890;28;20232;-47
2021/06/04 05:03:07;;;;;;;1.65;1.45;;;23.80;35.80;;;;;;5016611;28;20573;-47
2021/06/04 05:05:33;;;;;;;1.63;1.52;;;23.80;35.80;;;;;;5023136;28;20249;-49
2021/06/04 05:07:59;;;;;;;1.80;1.70;;;23.80;35.80;;;;;;5008546;28;20655;-46
2021/06/04 05:10:26;;;;;;;1.40;1.30;;;23.80;35.80;;;;;;5031945;28;20360;-47
2021/06/04 05:12:52;;;;;;;1.70;1.60;;;23.80;35.80;;;;;;5021672;28;20214;-46
2021/06/04 05:15:17;;;;;;;1.73;1.63;;;23.80;35.80;;;;;;5028898;28;20230;-46
2021/06/04 05:17:43;;;;;;;1.60;1.50;;;23.80;35.70;;;;;;5013306;28;20238;-48
2021/06/04 05:20:09;;;;;;;1.40;1.30;;;23.80;35.70;;;;;;5012298;28;20203;-46
2021/06/04 05:22:35;;;;;;;1.65;1.55;;;23.80;35.80;;;;;;5012652;28;20234;-46
2021/06/04 05:25:01;;;;;;;1.73;1.63;;;23.80;35.80;;;;;;5012881;28;20203;-47
2021/06/04 05:27:27;;;;;;;1.55;1.45;;;23.80;35.80;;;;;;5014788;28;20680;-48
2021/06/04 05:29:54;;;;;;;1.95;1.80;;;23.80;35.70;;;;;;5011396;28;20257;-45
2021/06/04 05:32:21;;;;;;;1.80;1.70;;;23.80;35.70;;;;;;5018943;28;20250;-49
2021/06/04 05:34:47;;;;;;;1.45;1.35;;;23.80;35.70;;;;;;5012035;28;20280;-49
2021/06/04 05:37:13;;;;;;;1.63;1.52;;;23.80;35.80;;;;;;5011259;28;20780;-47
2021/06/04 05:39:39;;;;;;;1.60;1.50;;;23.80;35.70;;;;;;5012545;28;20202;-47
2021/06/04 05:42:05;;;;;;;1.58;1.48;;;23.80;35.70;;;;;;5012670;28;20199;-46
2021/06/04 05:44:31;;;;;;;1.50;1.40;;;23.80;35.70;;;;;;5012486;28;20206;-47
2021/06/04 05:46:57;;;;;;;1.63;1.52;;;23.80;35.70;;;;;;5013338;28;20226;-52
2021/06/04 05:49:23;;;;;;;1.88;1.77;;;23.80;35.70;;;;;;5012721;28;20207;-49
2021/06/04 05:51:49;;;;;;;1.40;1.30;;;23.80;35.80;;;;;;5014386;28;20253;-50
2021/06/04 05:54:16;;;;;;;1.70;1.40;;;23.80;35.70;;;;;;5016039;28;20238;-46
2021/06/04 05:56:42;;;;;;;2.05;1.48;;;23.80;35.80;;;;;;5010735;28;20662;-47
2021/06/04 05:59:10;;;;;;;1.92;1.60;;;23.80;36.00;;;;;;5018263;28;20211;-47
2021/06/04 06:01:36;;;;;;;1.73;1.63;;;23.80;36.20;;;;;;5011711;28;20663;-46
2021/06/04 06:04:03;;;;;;;1.45;1.35;;;23.80;36.30;;;;;;5018730;28;20223;-48
2021/06/04 06:06:29;;;;;;;1.63;1.52;;;23.80;36.20;;;;;;5012282;28;20245;-47
2021/06/04 06:08:55;;;;;;;1.85;1.60;;;23.80;36.20;;;;;;5011266;28;20199;-48
2021/06/04 06:11:22;;;;;;;2.22;1.60;;;23.80;36.20;;;;;;5011062;28;20207;-47
2021/06/04 06:13:48;;;;;;;1.80;1.70;;;23.80;36.20;;;;;;5022474;28;20226;-48
2021/06/04 06:16:14;;;;;;;1.95;1.80;;;23.80;36.40;;;;;;5020834;28;20226;-47
2021/06/04 06:18:40;;;;;;;2.53;1.70;;;23.80;36.30;;;;;;5011894;28;20214;-51
2021/06/04 06:21:06;;;;;;;2.38;1.60;;;23.80;36.60;;;;;;5011851;28;20203;-46
2021/06/04 06:23:32;;;;;;;1.73;1.63;;;23.80;36.50;;;;;;5021612;28;20226;-48
2021/06/04 06:25:58;;;;;;;1.48;1.35;;;23.80;36.60;;;;;;5024824;28;20776;-51
2021/06/04 06:28:24;;;;;;;2.92;1.65;;;23.80;36.70;;;;;;5015536;28;20211;-50
2021/06/04 06:30:50;;;;;;;3.17;1.55;;;23.80;36.70;;;;;;5011751;28;20565;-49
2021/06/04 06:33:16;;;;;;;3.38;1.42;;;23.80;36.70;;;;;;5020109;28;20230;-46
2021/06/04 06:35:42;;;;;;;3.30;1.55;;;23.80;36.50;;;;;;5031032;28;20264;-49
2021/06/04 06:38:08;;;;;;;3.10;1.40;;;23.80;36.70;;;;;;5024557;28;20234;-47
2021/06/04 06:40:34;;;;;;;4.10;1.58;;;23.80;36.40;;;;;;5010916;28;20509;-46
2021/06/04 06:43:00;;;;;;;1.73;1.60;;;23.80;36.50;;;;;;5011834;28;20230;-48
2021/06/04 06:45:27;;;;;;;2.40;1.50;;;23.80;36.30;;;;;;5011284;28;20227;-46
2021/06/04 06:47:53;;;;;;;2.35;1.58;;;23.80;36.30;;;;;;5015395;28;20203;-49
2021/06/04 06:50:19;;;;;;;1.50;1.40;;;23.80;36.10;;;;;;5012201;28;20203;-49
2021/06/04 06:52:45;;;;;;;1.58;1.48;;;23.80;36.30;;;;;;5017416;28;20623;-48
2021/06/04 06:55:11;;;;;;;1.90;1.70;;;23.90;36.10;;;;;;5023211;28;20207;-46
2021/06/04 06:57:37;;;;;;;1.85;1.70;;;23.90;36.20;;;;;;5014042;28;20275;-47
2021/06/04 07:00:03;;;;;;;1.50;1.40;;;23.90;36.20;;;;;;5010128;28;20218;-50
2021/06/04 07:02:29;;;;;;;2.55;1.42;;;23.90;36.20;;;;;;5013823;28;20222;-50
2021/06/04 07:04:55;;;;;;;1.83;1.50;;;23.90;36.10;;;;;;5014288;28;20652;-48
2021/06/04 07:07:21;;;;;;;1.98;1.88;;;23.90;35.80;;;;;;5007890;28;20341;-48
2021/06/04 07:09:47;;;;;;;1.63;1.38;;;23.90;36.00;;;;;;5011482;28;20285;-50
2021/06/04 07:12:13;;;;;;;2.80;1.60;;;23.90;36.30;;;;;;5012030;28;20229;-49
2021/06/04 07:14:39;;;;;;;1.60;1.40;;;23.90;36.10;;;;;;5022287;28;20202;-48
2021/06/04 07:17:05;;;;;;;1.60;1.30;;;24.00;35.80;;;;;;5019625;28;20211;-49
2021/06/04 07:19:33;;;;;;;1.63;1.52;;;24.00;36.20;;;;;;5012865;28;20209;-46
2021/06/04 07:22:01;;;;;;;3.58;1.60;;;24.00;36.60;;;;;;5025746;28;20206;-48
2021/06/04 07:24:27;;;;;;;1.90;1.38;;;24.00;37.10;;;;;;5010080;28;20658;-49
2021/06/04 07:26:53;;;;;;;1.70;1.40;;;24.00;37.10;;;;;;5018079;28;20365;-47
2021/06/04 07:29:19;;;;;;;3.05;2.85;;;24.00;36.60;;;;;;5014595;28;20670;-47
2021/06/04 07:31:45;;;;;;;5.13;3.60;;;23.90;36.90;;;;;;5002957;28;20218;-47
2021/06/04 07:34:12;;;;;;;4.82;3.78;;;23.10;38.10;;;;;;5011468;28;20726;-45
2021/06/04 07:36:38;;;;;;;4.03;3.10;;;22.80;38.40;;;;;;5008499;28;20230;-48
2021/06/04 07:39:04;;;;;;;3.88;2.95;;;22.90;38.40;;;;;;4997440;28;20310;-48
2021/06/04 07:41:30;;;;;;;4.13;3.13;;;23.30;38.10;;;;;;5010774;28;20574;-48
2021/06/04 07:43:56;;;;;;;6.40;2.92;;;23.50;37.70;;;;;;5025975;28;20225;-46
2021/06/04 07:46:22;;;;;;;3.25;2.95;;;23.60;37.40;;;;;;5020916;28;20230;-48
2021/06/04 07:48:48;;;;;;;6.18;2.70;;;23.80;37.30;;;;;;5019860;28;20213;-46
2021/06/04 07:51:14;;;;;;;6.38;2.85;;;23.80;37.20;;;;;;5021440;28;20207;-48
2021/06/04 07:53:40;;;;;;;3.45;2.85;;;23.90;37.20;;;;;;5009771;28;20368;-48
2021/06/04 07:56:06;;;;;;;2.95;2.65;;;23.90;37.20;;;;;;5020762;28;20667;-47
2021/06/04 07:58:32;;;;;;;2.88;2.67;;;23.90;37.10;;;;;;5019772;28;20210;-47
2021/06/04 08:00:59;;;;;;;2.92;2.58;;;24.00;37.30;;;;;;5019792;28;20575;-45
2021/06/04 08:03:25;;;;;;;2.58;2.38;;;23.90;37.20;;;;;;5020949;28;20229;-48
2021/06/04 08:05:51;;;;;;;2.92;2.47;;;24.00;37.10;;;;;;5022559;28;20224;-49
2021/06/04 08:08:17;;;;;;;2.30;2.10;;;24.00;37.40;;;;;;5012999;28;20285;-49
2021/06/04 08:10:43;;;;;;;2.47;2.28;;;24.00;37.50;;;;;;5008504;28;20769;-53
2021/06/04 08:13:13;;;;;;;2.47;2.10;;;24.00;37.70;;;;;;5033721;28;20218;-47
2021/06/04 08:15:39;;;;;;;2.28;2.10;;;24.10;37.80;;;;;;5014567;28;20574;-44
2021/06/04 08:18:05;;;;;;;2.40;2.20;;;24.10;38.00;;;;;;5017889;28;20200;-48
2021/06/04 08:20:31;;;;;;;4.07;2.20;;;24.10;37.80;;;;;;5016906;28;20251;-48
2021/06/04 08:22:57;;;;;;;2.13;1.90;;;24.10;38.00;;;;;;5021048;28;20774;-51
2021/06/04 08:25:23;;;;;;;2.28;2.08;;;24.10;38.20;;;;;;5014100;28;20198;-56
2021/06/04 08:27:49;;;;;;;2.72;1.92;;;24.10;37.90;;;;;;5028913;28;20563;-46
2021/06/04 08:30:15;;;;;;;4.95;2.08;;;24.10;38.00;;;;;;5016916;28;20199;-47
2021/06/04 08:32:41;;;;;;;3.83;2.20;;;24.10;38.00;;;;;;5016591;28;20314;-44
2021/06/04 08:35:07;;;;;;;4.75;1.85;;;24.10;38.20;;;;;;5015236;28;20296;-47
2021/06/04 08:37:33;;;;;;;5.18;2.80;;;24.10;38.40;;;;;;5027842;28;20203;-44
2021/06/04 08:39:59;;;;;;;2.28;1.98;;;24.10;38.20;;;;;;5024612;28;20210;-43
2021/06/04 08:42:25;;;;;;;2.35;2.05;;;24.10;38.20;;;;;;5017415;28;20223;-45
2021/06/04 08:44:51;;;;;;;2.88;1.70;;;24.10;38.20;;;;;;5012373;28;20199;-44
2021/06/04 08:47:17;;;;;;;2.33;2.00;;;24.10;38.20;;;;;;5033861;28;20579;-46
2021/06/04 08:49:43;;;;;;;3.83;1.95;;;24.20;38.30;;;;;;5016746;28;20211;-43
2021/06/04 08:52:12;;;;;;;3.55;1.90;;;24.20;38.30;;;;;;5024425;28;20246;-44
2021/06/04 08:54:38;;;;;;;2.13;1.90;;;24.20;38.30;;;;;;5012773;28;20210;-45
2021/06/04 08:57:04;;;;;;;6.50;2.10;;;24.20;38.30;;;;;;5012551;28;20202;-48
2021/06/04 08:59:30;;;;;;;4.45;2.28;;;24.20;39.90;;;;;;5008849;28;20651;-46
2021/06/04 09:01:56;;;;;;;4.53;2.50;;;24.20;38.50;;;;;;5013265;28;20223;-45
2021/06/04 09:04:22;;;;;;;4.60;2.03;;;24.20;38.60;;;;;;5012342;28;20532;-46
2021/06/04 09:06:48;;;;;;;2.15;1.65;;;24.20;38.70;;;;;;5013234;28;20238;-46
2021/06/04 09:09:14;;;;;;;3.78;2.42;;;24.20;38.80;;;;;;5013152;28;20207;-48
2021/06/04 09:11:40;;;;;;;2.60;1.70;;;24.20;38.30;;;;;;5013616;28;20567;-45
2021/06/04 09:14:07;;;;;;;3.10;2.08;;;24.20;38.30;;;;;;5013349;28;20200;-46
2021/06/04 09:16:33;;;;;;;3.05;2.10;;;24.20;38.30;;;;;;5013285;28;20210;-46
2021/06/04 09:18:59;;;;;;;2.70;1.92;;;24.20;38.30;;;;;;5012419;28;20198;-46
2021/06/04 09:21:25;;;;;;;2.60;1.83;;;24.20;38.30;;;;;;5013033;28;20199;-47
2021/06/04 09:23:51;;;;;;;3.65;2.10;;;24.20;38.30;;;;;;5012880;28;20219;-46
2021/06/04 09:26:16;;;;;;;2.90;2.03;;;24.20;38.30;;;;;;5013240;28;20226;-48
2021/06/04 09:28:47;;;;;;;4.15;2.30;;;24.20;38.30;;;;;;5012693;28;20198;-47
2021/06/04 09:31:13;;;;;;;2.97;2.00;;;24.20;38.30;;;;;;4999632;28;20208;-45
2021/06/04 09:33:39;;;;;;;2.20;2.00;;;24.20;38.30;;;;;;4992943;28;20290;-47
2021/06/04 09:36:05;;;;;;;2.78;2.00;;;24.20;38.30;;;;;;5012032;28;20561;-50
2021/06/04 09:38:31;;;;;;;2.28;2.08;;;24.20;38.30;;;;;;5012542;28;20207;-46
2021/06/04 09:40:57;;;;;;;1.85;1.73;;;24.20;38.30;;;;;;5011797;28;20203;-47
2021/06/04 09:43:23;;;;;;;2.47;2.28;;;24.20;38.30;;;;;;5024534;28;20230;-47
2021/06/04 09:45:49;;;;;;;2.17;2.00;;;24.20;38.30;;;;;;5012176;28;20584;-46
2021/06/04 09:48:15;;;;;;;3.10;2.47;;;24.30;38.40;;;;;;5012078;28;20644;-45
2021/06/04 09:50:41;;;;;;;4.03;2.63;;;24.30;38.40;;;;;;5012117;28;20254;-46
2021/06/04 09:53:07;;;;;;;4.22;2.22;;;24.30;38.40;;;;;;5011845;28;20796;-46
2021/06/04 09:55:33;;;;;;;3.00;2.20;;;24.30;38.60;;;;;;5009372;28;20214;-47
2021/06/04 09:57:59;;;;;;;3.80;2.25;;;24.30;38.50;;;;;;5007839;28;20226;-51
2021/06/04 10:00:25;;;;;;;2.10;1.80;;;24.30;39.00;;;;;;5018247;28;20210;-50
2021/06/04 10:02:51;;;;;;;3.60;2.78;;;24.30;38.70;;;;;;5007280;28;20294;-51
2021/06/04 10:05:17;;;;;;;6.43;2.60;;;24.30;39.20;;;;;;5014239;28;20203;-46
2021/06/04 10:07:44;;;;;;;2.47;2.05;;;24.30;39.00;;;;;;5008111;28;20203;-47
2021/06/04 10:10:10;;;;;;;6.25;2.80;;;24.30;39.60;;;;;;5008070;28;20198;-50
2021/06/04 10:12:37;;;;;;;7.68;2.33;;;24.30;40.00;;;;;;5010409;28;20227;-49
2021/06/04 10:15:03;;;;;;;7.22;2.50;;;24.40;40.60;;;;;;5010226;28;20294;-50
2021/06/04 10:17:42;;;;;;;5.30;2.42;;;24.30;40.20;;;;;;5019310;28;20289;-45
2021/06/04 10:20:08;;;;;;;5.78;2.75;;;24.30;41.30;;;;;;5011264;28;20261;-47
2021/06/04 10:22:34;;;;;;;6.57;2.67;;;24.40;41.20;;;;;;5011945;28;20322;-43
2021/06/04 10:25:00;;;;;;;4.53;2.67;;;24.30;41.00;;;;;;5010037;28;20214;-49
2021/06/04 10:27:27;;;;;;;4.82;2.63;;;24.30;41.30;;;;;;5011649;28;20227;-44
2021/06/04 10:29:53;;;;;;;5.78;2.47;;;24.30;41.20;;;;;;5009887;28;20202;-51
2021/06/04 10:32:19;;;;;;;5.10;3.03;;;24.40;41.80;;;;;;5019968;28;20254;-45
2021/06/04 10:34:45;;;;;;;2.85;2.50;;;24.40;42.20;;;;;;5021076;28;20212;-45
2021/06/04 10:37:11;;;;;;;5.05;2.60;;;24.40;41.90;;;;;;5028819;28;20569;-46
2021/06/04 10:39:37;;;;;;;5.40;2.65;;;24.40;42.30;;;;;;5018261;28;20202;-45
2021/06/04 10:42:03;;;;;;;5.88;2.80;;;24.40;42.10;;;;;;5011150;28;20227;-54
2021/06/04 10:44:30;;;;;;;2.85;2.53;;;24.40;42.10;;;;;;5012172;28;20203;-50
2021/06/04 10:46:56;;;;;;;5.18;2.60;;;24.40;41.80;;;;;;5026793;28;20230;-48
2021/06/04 10:49:22;;;;;;;4.80;2.72;;;24.40;41.40;;;;;;5014596;28;20218;-51
2021/06/04 10:51:48;;;;;;;5.55;2.88;;;24.40;41.60;;;;;;5027020;28;20570;-48
2021/06/04 10:54:14;;;;;;;5.50;3.05;;;24.40;41.70;;;;;;5007266;28;20214;-50
2021/06/04 10:56:40;;;;;;;4.20;3.00;;;24.40;41.00;;;;;;5017900;28;20203;-44
2021/06/04 10:59:06;;;;;;;3.28;2.97;;;24.40;40.90;;;;;;4999006;28;20226;-45
2021/06/04 11:01:32;;;;;;;7.50;3.88;;;24.40;40.90;;;;;;5008653;28;20219;-44
2021/06/04 11:03:59;;;;;;;5.90;3.17;;;24.40;40.70;;;;;;5019380;28;20605;-45
2021/06/04 11:06:25;;;;;;;4.53;3.00;;;24.40;40.90;;;;;;5008518;28;20752;-46
2021/06/04 11:08:51;;;;;;;4.40;3.20;;;24.40;40.70;;;;;;5008543;28;20221;-44
2021/06/04 11:11:17;;;;;;;6.43;3.65;;;24.40;40.50;;;;;;5009306;28;20239;-44
2021/06/04 11:13:43;;;;;;;3.17;2.88;;;24.40;40.60;;;;;;5010309;28;20199;-46
2021/06/04 11:16:09;;;;;;;3.78;3.25;;;24.40;40.50;;;;;;5010297;28;20218;-44
2021/06/04 11:18:35;;;;;;;3.80;3.40;;;24.40;40.50;;;;;;5009304;28;20686;-47
2021/06/04 11:21:02;;;;;;;5.28;3.13;;;24.40;40.50;;;;;;5009576;28;20198;-45
2021/06/04 11:23:28;;;;;;;3.55;3.25;;;24.40;40.30;;;;;;5007751;28;20199;-48
2021/06/04 11:25:54;;;;;;;6.68;4.35;;;24.40;40.50;;;;;;5010409;28;20230;-46
2021/06/04 11:28:20;;;;;;;4.43;3.70;;;24.40;41.00;;;;;;5009578;28;20276;-47
2021/06/04 11:30:46;;;;;;;4.85;4.13;;;24.40;41.70;;;;;;5007466;28;20209;-47
2021/06/04 11:33:12;;;;;;;5.20;4.22;;;24.40;41.90;;;;;;5009147;28;20226;-46
2021/06/04 11:35:38;;;;;;;7.38;4.10;;;24.40;41.60;;;;;;5000944;28;20211;-46
2021/06/04 11:38:04;;;;;;;6.68;4.05;;;24.40;42.20;;;;;;4993700;28;20241;-47
2021/06/04 11:40:30;;;;;;;5.82;4.20;;;24.40;42.70;;;;;;5009423;28;20272;-46
2021/06/04 11:42:56;;;;;;;5.15;4.65;;;24.50;43.10;;;;;;5009531;28;20215;-45
2021/06/04 11:45:23;;;;;;;4.43;4.05;;;24.50;43.40;;;;;;4999069;28;20222;-49
2021/06/04 11:47:49;;;;;;;6.40;4.28;;;24.50;43.40;;;;;;5009102;28;20254;-45
2021/06/04 11:50:14;;;;;;;5.05;4.55;;;24.40;43.30;;;;;;5012061;28;20207;-44
2021/06/04 11:52:40;;;;;;;4.55;4.15;;;24.40;43.30;;;;;;5007788;28;20229;-46
2021/06/04 11:55:06;;;;;;;5.28;4.30;;;24.40;43.30;;;;;;5009815;28;20239;-49
2021/06/04 11:57:32;;;;;;;5.05;4.20;;;24.40;43.30;;;;;;5010049;28;20200;-48
2021/06/04 11:59:58;;;;;;;4.30;3.90;;;24.40;43.30;;;;;;5007927;28;20577;-50
2021/06/04 12:02:24;;;;;;;4.78;4.28;;;24.40;43.30;;;;;;5009722;28;20237;-46
2021/06/04 12:04:50;;;;;;;4.55;4.15;;;24.40;43.50;;;;;;5009977;28;20207;-47
2021/06/04 12:07:16;;;;;;;4.88;3.92;;;24.40;42.90;;;;;;5011717;28;20235;-46
2021/06/04 12:09:42;;;;;;;6.25;4.80;;;24.40;42.60;;;;;;5010093;28;20206;-44
2021/06/04 12:12:08;;;;;;;4.50;4.10;;;24.40;42.50;;;;;;5006236;28;20267;-45
2021/06/04 12:14:34;;;;;;;4.45;4.10;;;24.40;42.30;;;;;;5013976;28;20686;-45
2021/06/04 12:17:00;;;;;;;4.72;4.30;;;24.40;42.20;;;;;;5008178;28;20207;-47
2021/06/04 12:19:27;;;;;;;4.78;4.20;;;24.40;42.10;;;;;;5009886;28;20207;-49
2021/06/04 12:21:53;;;;;;;4.63;4.22;;;24.40;42.20;;;;;;5009030;28;20643;-45
2021/06/04 12:24:19;;;;;;;4.78;4.00;;;24.40;42.40;;;;;;5004781;28;20207;-49
2021/06/04 12:26:45;;;;;;;5.53;4.10;;;24.40;42.20;;;;;;5010047;28;20261;-47
2021/06/04 12:29:11;;;;;;;4.32;3.92;;;24.40;42.20;;;;;;5008845;28;20520;-45
2021/06/04 12:31:37;;;;;;;4.32;4.03;;;24.40;42.20;;;;;;5009890;28;20222;-50
2021/06/04 12:34:03;;;;;;;4.72;4.32;;;24.40;41.80;;;;;;5011449;28;20211;-49
2021/06/04 12:36:29;;;;;;;4.35;3.75;;;24.40;42.00;;;;;;5009385;28;20664;-45
2021/06/04 12:38:55;;;;;;;4.47;4.07;;;24.40;41.80;;;;;;5008767;28;20199;-44
2021/06/04 12:41:21;;;;;;;4.38;4.00;;;24.40;41.70;;;;;;5012767;28;20215;-44